Terminal Aerodrome Forecast
Issued by NWS

Home | Current Version | Previous Version | Text Only | Print | Product List | Glossary On
Versions: 1 2 3 4 5 6 7 8 9 10 11 12 13
000
FTUS43 KMQT 202300
TAFIWD
TAF
KIWD 202338Z 2100/2124 VRB03KT P6SM SKC
     FM211000 16004KT 5SM BR SCT250
     FM211400 26007KT P6SM SCT100
     FM211900 31013KT P6SM SCT100
      AMD LTD TO CLD VIS AND WIND=

USA.gov is the U.S. government's official web portal to all federal, state and local government web resources and services.